sensor_id;sensor_type;location;lat;lon;timestamp;P1;durP1;ratioP1;P2;durP2;ratioP2
8399;SDS011;4237;47.030;15.396;2024-02-26T00:01:16;6.90;;;4.77;;
8399;SDS011;4237;47.030;15.396;2024-02-26T00:03:45;6.27;;;5.63;;
8399;SDS011;4237;47.030;15.396;2024-02-26T00:06:14;7.60;;;6.07;;
8399;SDS011;4237;47.030;15.396;2024-02-26T00:08:43;7.43;;;5.60;;
8399;SDS011;4237;47.030;15.396;2024-02-26T00:11:11;10.50;;;5.57;;
8399;SDS011;4237;47.030;15.396;2024-02-26T00:13:40;7.10;;;5.27;;
8399;SDS011;4237;47.030;15.396;2024-02-26T00:16:08;9.60;;;5.37;;
8399;SDS011;4237;47.030;15.396;2024-02-26T00:18:37;6.17;;;4.67;;
8399;SDS011;4237;47.030;15.396;2024-02-26T00:21:06;7.20;;;4.90;;
8399;SDS011;4237;47.030;15.396;2024-02-26T00:23:34;9.47;;;5.40;;
8399;SDS011;4237;47.030;15.396;2024-02-26T00:26:03;7.90;;;4.83;;
8399;SDS011;4237;47.030;15.396;2024-02-26T00:28:31;8.23;;;5.30;;
8399;SDS011;4237;47.030;15.396;2024-02-26T00:31:00;6.03;;;4.90;;
8399;SDS011;4237;47.030;15.396;2024-02-26T00:33:29;5.93;;;4.53;;
8399;SDS011;4237;47.030;15.396;2024-02-26T00:35:58;9.03;;;5.23;;
8399;SDS011;4237;47.030;15.396;2024-02-26T00:38:26;7.57;;;5.30;;
8399;SDS011;4237;47.030;15.396;2024-02-26T00:40:55;6.00;;;5.30;;
8399;SDS011;4237;47.030;15.396;2024-02-26T00:43:23;7.27;;;4.60;;
8399;SDS011;4237;47.030;15.396;2024-02-26T00:45:52;12.57;;;5.17;;
8399;SDS011;4237;47.030;15.396;2024-02-26T00:48:21;6.40;;;4.60;;
8399;SDS011;4237;47.030;15.396;2024-02-26T00:50:51;6.90;;;4.23;;
8399;SDS011;4237;47.030;15.396;2024-02-26T00:53:19;8.53;;;4.83;;
8399;SDS011;4237;47.030;15.396;2024-02-26T00:55:48;7.30;;;4.67;;
8399;SDS011;4237;47.030;15.396;2024-02-26T00:58:17;6.80;;;4.63;;
8399;SDS011;4237;47.030;15.396;2024-02-26T01:00:45;5.97;;;4.80;;
8399;SDS011;4237;47.030;15.396;2024-02-26T01:03:14;5.50;;;4.23;;
8399;SDS011;4237;47.030;15.396;2024-02-26T01:05:43;6.20;;;4.20;;
8399;SDS011;4237;47.030;15.396;2024-02-26T01:08:12;6.70;;;4.60;;
8399;SDS011;4237;47.030;15.396;2024-02-26T01:10:40;7.07;;;5.20;;
8399;SDS011;4237;47.030;15.396;2024-02-26T01:13:09;5.03;;;4.57;;
8399;SDS011;4237;47.030;15.396;2024-02-26T01:15:37;7.53;;;5.40;;
8399;SDS011;4237;47.030;15.396;2024-02-26T01:18:06;6.30;;;4.77;;
8399;SDS011;4237;47.030;15.396;2024-02-26T01:20:34;8.03;;;5.27;;
8399;SDS011;4237;47.030;15.396;2024-02-26T01:23:03;6.07;;;5.47;;
8399;SDS011;4237;47.030;15.396;2024-02-26T01:25:32;6.30;;;5.30;;
8399;SDS011;4237;47.030;15.396;2024-02-26T01:28:00;7.07;;;5.13;;
8399;SDS011;4237;47.030;15.396;2024-02-26T01:30:29;5.40;;;4.53;;
8399;SDS011;4237;47.030;15.396;2024-02-26T01:32:58;6.63;;;4.57;;
8399;SDS011;4237;47.030;15.396;2024-02-26T01:35:27;7.33;;;4.90;;
8399;SDS011;4237;47.030;15.396;2024-02-26T01:37:55;6.60;;;5.13;;
8399;SDS011;4237;47.030;15.396;2024-02-26T01:40:28;6.40;;;4.77;;
8399;SDS011;4237;47.030;15.396;2024-02-26T01:42:57;6.90;;;5.73;;
8399;SDS011;4237;47.030;15.396;2024-02-26T01:45:26;7.87;;;5.80;;
8399;SDS011;4237;47.030;15.396;2024-02-26T01:47:55;9.03;;;5.53;;
8399;SDS011;4237;47.030;15.396;2024-02-26T01:50:24;8.40;;;5.40;;
8399;SDS011;4237;47.030;15.396;2024-02-26T01:52:53;8.83;;;5.47;;
8399;SDS011;4237;47.030;15.396;2024-02-26T01:55:23;8.77;;;5.80;;
8399;SDS011;4237;47.030;15.396;2024-02-26T01:57:53;6.70;;;4.87;;
8399;SDS011;4237;47.030;15.396;2024-02-26T02:00:22;6.43;;;5.10;;
8399;SDS011;4237;47.030;15.396;2024-02-26T02:02:52;5.77;;;4.87;;
8399;SDS011;4237;47.030;15.396;2024-02-26T02:05:21;5.93;;;4.93;;
8399;SDS011;4237;47.030;15.396;2024-02-26T02:07:50;5.93;;;5.10;;
8399;SDS011;4237;47.030;15.396;2024-02-26T02:10:19;8.70;;;5.83;;
8399;SDS011;4237;47.030;15.396;2024-02-26T02:12:52;8.00;;;5.60;;
8399;SDS011;4237;47.030;15.396;2024-02-26T02:15:21;7.93;;;5.87;;
8399;SDS011;4237;47.030;15.396;2024-02-26T02:17:49;9.17;;;7.07;;
8399;SDS011;4237;47.030;15.396;2024-02-26T02:20:18;8.83;;;6.67;;
8399;SDS011;4237;47.030;15.396;2024-02-26T02:22:47;6.23;;;5.63;;
8399;SDS011;4237;47.030;15.396;2024-02-26T02:25:15;8.07;;;5.67;;
8399;SDS011;4237;47.030;15.396;2024-02-26T02:27:44;7.37;;;5.23;;
8399;SDS011;4237;47.030;15.396;2024-02-26T02:30:13;6.63;;;5.50;;
8399;SDS011;4237;47.030;15.396;2024-02-26T02:32:43;10.07;;;6.30;;
8399;SDS011;4237;47.030;15.396;2024-02-26T02:35:12;7.27;;;6.27;;
8399;SDS011;4237;47.030;15.396;2024-02-26T02:37:41;6.27;;;5.40;;
8399;SDS011;4237;47.030;15.396;2024-02-26T02:40:10;7.43;;;6.17;;
8399;SDS011;4237;47.030;15.396;2024-02-26T02:42:38;7.13;;;6.00;;
8399;SDS011;4237;47.030;15.396;2024-02-26T02:45:07;7.40;;;5.63;;
8399;SDS011;4237;47.030;15.396;2024-02-26T02:47:36;8.43;;;6.03;;
8399;SDS011;4237;47.030;15.396;2024-02-26T02:50:05;7.73;;;6.13;;
8399;SDS011;4237;47.030;15.396;2024-02-26T02:52:34;7.63;;;6.17;;
8399;SDS011;4237;47.030;15.396;2024-02-26T02:55:03;8.83;;;6.70;;
8399;SDS011;4237;47.030;15.396;2024-02-26T02:57:31;9.23;;;7.17;;
8399;SDS011;4237;47.030;15.396;2024-02-26T03:00:00;9.40;;;7.37;;
8399;SDS011;4237;47.030;15.396;2024-02-26T03:02:30;10.83;;;7.27;;
8399;SDS011;4237;47.030;15.396;2024-02-26T03:04:59;16.17;;;11.20;;
8399;SDS011;4237;47.030;15.396;2024-02-26T03:07:27;11.73;;;8.40;;
8399;SDS011;4237;47.030;15.396;2024-02-26T03:09:56;11.27;;;7.27;;
8399;SDS011;4237;47.030;15.396;2024-02-26T03:12:25;13.27;;;7.40;;
8399;SDS011;4237;47.030;15.396;2024-02-26T03:14:54;9.13;;;6.67;;
8399;SDS011;4237;47.030;15.396;2024-02-26T03:17:23;9.60;;;7.47;;
8399;SDS011;4237;47.030;15.396;2024-02-26T03:19:52;9.63;;;7.07;;
8399;SDS011;4237;47.030;15.396;2024-02-26T03:22:21;7.17;;;5.93;;
8399;SDS011;4237;47.030;15.396;2024-02-26T03:24:49;10.30;;;6.97;;
8399;SDS011;4237;47.030;15.396;2024-02-26T03:27:18;9.43;;;6.87;;
8399;SDS011;4237;47.030;15.396;2024-02-26T03:29:46;9.77;;;6.57;;
8399;SDS011;4237;47.030;15.396;2024-02-26T03:32:15;12.77;;;6.87;;
8399;SDS011;4237;47.030;15.396;2024-02-26T03:34:44;7.50;;;5.83;;
8399;SDS011;4237;47.030;15.396;2024-02-26T03:37:12;9.30;;;6.10;;
8399;SDS011;4237;47.030;15.396;2024-02-26T03:39:42;8.17;;;6.13;;
8399;SDS011;4237;47.030;15.396;2024-02-26T03:42:10;6.83;;;6.07;;
8399;SDS011;4237;47.030;15.396;2024-02-26T03:44:39;7.73;;;6.10;;
8399;SDS011;4237;47.030;15.396;2024-02-26T03:47:07;7.03;;;5.57;;
8399;SDS011;4237;47.030;15.396;2024-02-26T03:49:36;7.03;;;5.50;;
8399;SDS011;4237;47.030;15.396;2024-02-26T03:52:04;7.97;;;5.73;;
8399;SDS011;4237;47.030;15.396;2024-02-26T03:54:33;8.60;;;5.60;;
8399;SDS011;4237;47.030;15.396;2024-02-26T03:57:02;8.40;;;5.63;;
8399;SDS011;4237;47.030;15.396;2024-02-26T03:59:31;7.43;;;5.60;;
8399;SDS011;4237;47.030;15.396;2024-02-26T04:01:59;7.20;;;5.33;;
8399;SDS011;4237;47.030;15.396;2024-02-26T04:04:29;10.07;;;5.97;;
8399;SDS011;4237;47.030;15.396;2024-02-26T04:06:57;11.20;;;5.57;;
8399;SDS011;4237;47.030;15.396;2024-02-26T04:09:26;6.67;;;5.97;;
8399;SDS011;4237;47.030;15.396;2024-02-26T04:11:54;8.47;;;5.63;;
8399;SDS011;4237;47.030;15.396;2024-02-26T04:14:23;8.47;;;5.77;;
8399;SDS011;4237;47.030;15.396;2024-02-26T04:16:51;7.07;;;5.10;;
8399;SDS011;4237;47.030;15.396;2024-02-26T04:19:21;7.97;;;5.97;;
8399;SDS011;4237;47.030;15.396;2024-02-26T04:21:49;7.17;;;5.43;;
8399;SDS011;4237;47.030;15.396;2024-02-26T04:24:18;5.93;;;5.33;;
8399;SDS011;4237;47.030;15.396;2024-02-26T04:26:47;6.00;;;5.23;;
8399;SDS011;4237;47.030;15.396;2024-02-26T04:29:16;8.17;;;5.63;;
8399;SDS011;4237;47.030;15.396;2024-02-26T04:31:45;7.97;;;5.50;;
8399;SDS011;4237;47.030;15.396;2024-02-26T04:34:14;8.73;;;5.80;;
8399;SDS011;4237;47.030;15.396;2024-02-26T04:36:43;8.20;;;5.87;;
8399;SDS011;4237;47.030;15.396;2024-02-26T04:39:11;9.07;;;6.83;;
8399;SDS011;4237;47.030;15.396;2024-02-26T04:41:40;11.10;;;7.37;;
8399;SDS011;4237;47.030;15.396;2024-02-26T04:44:08;12.33;;;7.73;;
8399;SDS011;4237;47.030;15.396;2024-02-26T04:46:37;12.47;;;8.63;;
8399;SDS011;4237;47.030;15.396;2024-02-26T04:49:06;9.83;;;8.00;;
8399;SDS011;4237;47.030;15.396;2024-02-26T04:51:34;13.47;;;10.33;;
8399;SDS011;4237;47.030;15.396;2024-02-26T04:54:04;14.60;;;10.77;;
8399;SDS011;4237;47.030;15.396;2024-02-26T04:56:32;17.37;;;12.13;;
8399;SDS011;4237;47.030;15.396;2024-02-26T04:59:01;17.40;;;11.43;;
8399;SDS011;4237;47.030;15.396;2024-02-26T05:01:29;17.83;;;11.50;;
8399;SDS011;4237;47.030;15.396;2024-02-26T05:03:58;17.83;;;11.13;;
8399;SDS011;4237;47.030;15.396;2024-02-26T05:06:26;15.47;;;10.70;;
8399;SDS011;4237;47.030;15.396;2024-02-26T05:08:55;16.13;;;11.17;;
8399;SDS011;4237;47.030;15.396;2024-02-26T05:11:23;19.93;;;14.00;;
8399;SDS011;4237;47.030;15.396;2024-02-26T05:13:52;47.60;;;28.97;;
8399;SDS011;4237;47.030;15.396;2024-02-26T05:16:21;40.23;;;24.23;;
8399;SDS011;4237;47.030;15.396;2024-02-26T05:18:51;30.80;;;20.03;;
8399;SDS011;4237;47.030;15.396;2024-02-26T05:21:20;25.57;;;16.93;;
8399;SDS011;4237;47.030;15.396;2024-02-26T05:23:48;26.13;;;16.67;;
8399;SDS011;4237;47.030;15.396;2024-02-26T05:26:20;23.93;;;16.90;;
8399;SDS011;4237;47.030;15.396;2024-02-26T05:28:49;19.97;;;14.37;;
8399;SDS011;4237;47.030;15.396;2024-02-26T05:31:18;15.03;;;9.63;;
8399;SDS011;4237;47.030;15.396;2024-02-26T05:33:46;11.57;;;8.87;;
8399;SDS011;4237;47.030;15.396;2024-02-26T05:36:18;13.10;;;8.50;;
8399;SDS011;4237;47.030;15.396;2024-02-26T05:38:48;12.33;;;9.17;;
8399;SDS011;4237;47.030;15.396;2024-02-26T05:41:17;13.50;;;8.53;;
8399;SDS011;4237;47.030;15.396;2024-02-26T05:43:48;9.33;;;7.73;;
8399;SDS011;4237;47.030;15.396;2024-02-26T05:46:17;9.13;;;7.60;;
8399;SDS011;4237;47.030;15.396;2024-02-26T05:48:50;14.13;;;8.17;;
8399;SDS011;4237;47.030;15.396;2024-02-26T05:51:19;14.73;;;10.27;;
8399;SDS011;4237;47.030;15.396;2024-02-26T05:53:48;16.27;;;10.60;;
8399;SDS011;4237;47.030;15.396;2024-02-26T05:56:18;16.47;;;10.33;;
8399;SDS011;4237;47.030;15.396;2024-02-26T05:58:48;15.50;;;11.03;;
8399;SDS011;4237;47.030;15.396;2024-02-26T06:01:16;15.63;;;10.23;;
8399;SDS011;4237;47.030;15.396;2024-02-26T06:03:45;13.33;;;10.10;;
8399;SDS011;4237;47.030;15.396;2024-02-26T06:06:14;15.27;;;10.00;;
8399;SDS011;4237;47.030;15.396;2024-02-26T06:08:42;14.07;;;10.33;;
8399;SDS011;4237;47.030;15.396;2024-02-26T06:11:11;18.50;;;15.30;;
8399;SDS011;4237;47.030;15.396;2024-02-26T06:13:40;39.17;;;26.63;;
8399;SDS011;4237;47.030;15.396;2024-02-26T06:16:09;30.53;;;23.37;;
8399;SDS011;4237;47.030;15.396;2024-02-26T06:18:37;24.93;;;17.10;;
8399;SDS011;4237;47.030;15.396;2024-02-26T06:21:08;15.20;;;10.47;;
8399;SDS011;4237;47.030;15.396;2024-02-26T06:23:39;14.80;;;8.53;;
8399;SDS011;4237;47.030;15.396;2024-02-26T06:26:07;12.33;;;8.40;;
8399;SDS011;4237;47.030;15.396;2024-02-26T06:28:37;9.67;;;7.23;;
8399;SDS011;4237;47.030;15.396;2024-02-26T06:31:07;10.60;;;6.97;;
8399;SDS011;4237;47.030;15.396;2024-02-26T06:33:36;10.07;;;6.43;;
8399;SDS011;4237;47.030;15.396;2024-02-26T06:36:04;10.33;;;6.87;;
8399;SDS011;4237;47.030;15.396;2024-02-26T06:38:33;12.87;;;6.50;;
8399;SDS011;4237;47.030;15.396;2024-02-26T06:41:02;9.40;;;5.93;;
8399;SDS011;4237;47.030;15.396;2024-02-26T06:43:30;8.40;;;5.70;;
8399;SDS011;4237;47.030;15.396;2024-02-26T06:45:59;8.23;;;5.47;;
8399;SDS011;4237;47.030;15.396;2024-02-26T06:48:27;7.63;;;5.87;;
8399;SDS011;4237;47.030;15.396;2024-02-26T06:50:56;10.63;;;5.93;;
8399;SDS011;4237;47.030;15.396;2024-02-26T06:53:25;7.93;;;5.73;;
8399;SDS011;4237;47.030;15.396;2024-02-26T06:55:53;8.60;;;6.20;;
8399;SDS011;4237;47.030;15.396;2024-02-26T06:58:22;9.37;;;6.17;;
8399;SDS011;4237;47.030;15.396;2024-02-26T07:00:50;10.50;;;6.27;;
8399;SDS011;4237;47.030;15.396;2024-02-26T07:03:19;9.17;;;5.60;;
8399;SDS011;4237;47.030;15.396;2024-02-26T07:05:49;7.60;;;5.17;;
8399;SDS011;4237;47.030;15.396;2024-02-26T07:08:18;6.87;;;5.17;;
8399;SDS011;4237;47.030;15.396;2024-02-26T07:10:48;7.67;;;4.73;;
8399;SDS011;4237;47.030;15.396;2024-02-26T07:13:16;7.30;;;4.87;;
8399;SDS011;4237;47.030;15.396;2024-02-26T07:15:45;6.70;;;5.37;;
8399;SDS011;4237;47.030;15.396;2024-02-26T07:18:13;5.87;;;4.77;;
8399;SDS011;4237;47.030;15.396;2024-02-26T07:20:42;7.13;;;4.97;;
8399;SDS011;4237;47.030;15.396;2024-02-26T07:23:11;7.90;;;5.27;;
8399;SDS011;4237;47.030;15.396;2024-02-26T07:25:39;13.57;;;6.07;;
8399;SDS011;4237;47.030;15.396;2024-02-26T07:28:09;9.70;;;5.37;;
8399;SDS011;4237;47.030;15.396;2024-02-26T07:30:37;7.43;;;5.60;;
8399;SDS011;4237;47.030;15.396;2024-02-26T07:33:06;9.20;;;5.17;;
8399;SDS011;4237;47.030;15.396;2024-02-26T07:35:34;10.20;;;5.07;;
8399;SDS011;4237;47.030;15.396;2024-02-26T07:38:05;9.00;;;5.37;;
8399;SDS011;4237;47.030;15.396;2024-02-26T07:40:33;7.80;;;4.60;;
8399;SDS011;4237;47.030;15.396;2024-02-26T07:43:03;5.73;;;4.83;;
8399;SDS011;4237;47.030;15.396;2024-02-26T07:45:31;8.20;;;5.03;;
8399;SDS011;4237;47.030;15.396;2024-02-26T07:48:00;7.17;;;5.03;;
8399;SDS011;4237;47.030;15.396;2024-02-26T07:50:29;7.47;;;4.90;;
8399;SDS011;4237;47.030;15.396;2024-02-26T07:52:57;8.37;;;5.17;;
8399;SDS011;4237;47.030;15.396;2024-02-26T07:55:26;8.00;;;5.50;;
8399;SDS011;4237;47.030;15.396;2024-02-26T07:57:55;8.53;;;5.07;;
8399;SDS011;4237;47.030;15.396;2024-02-26T08:00:23;6.10;;;4.87;;
8399;SDS011;4237;47.030;15.396;2024-02-26T08:02:52;8.00;;;5.40;;
8399;SDS011;4237;47.030;15.396;2024-02-26T08:05:20;7.03;;;5.50;;
8399;SDS011;4237;47.030;15.396;2024-02-26T08:07:49;8.23;;;5.97;;
8399;SDS011;4237;47.030;15.396;2024-02-26T08:10:17;11.03;;;6.20;;
8399;SDS011;4237;47.030;15.396;2024-02-26T08:12:46;11.20;;;6.47;;
8399;SDS011;4237;47.030;15.396;2024-02-26T08:15:15;9.20;;;6.80;;
8399;SDS011;4237;47.030;15.396;2024-02-26T08:17:43;9.10;;;6.77;;
8399;SDS011;4237;47.030;15.396;2024-02-26T08:20:13;9.40;;;5.87;;
8399;SDS011;4237;47.030;15.396;2024-02-26T08:22:42;6.63;;;5.27;;
8399;SDS011;4237;47.030;15.396;2024-02-26T08:25:11;5.93;;;5.07;;
8399;SDS011;4237;47.030;15.396;2024-02-26T08:27:39;6.07;;;4.90;;
8399;SDS011;4237;47.030;15.396;2024-02-26T08:30:08;5.47;;;4.10;;
8399;SDS011;4237;47.030;15.396;2024-02-26T08:32:37;6.37;;;3.93;;
8399;SDS011;4237;47.030;15.396;2024-02-26T08:35:06;4.23;;;3.20;;
8399;SDS011;4237;47.030;15.396;2024-02-26T08:37:35;3.73;;;3.17;;
8399;SDS011;4237;47.030;15.396;2024-02-26T08:40:03;4.40;;;3.50;;
8399;SDS011;4237;47.030;15.396;2024-02-26T08:42:33;8.00;;;4.07;;
8399;SDS011;4237;47.030;15.396;2024-02-26T08:45:01;7.30;;;4.13;;
8399;SDS011;4237;47.030;15.396;2024-02-26T08:47:30;6.10;;;3.93;;
8399;SDS011;4237;47.030;15.396;2024-02-26T08:49:59;4.90;;;3.27;;
8399;SDS011;4237;47.030;15.396;2024-02-26T08:52:28;5.27;;;4.37;;
8399;SDS011;4237;47.030;15.396;2024-02-26T08:54:56;6.57;;;3.70;;
8399;SDS011;4237;47.030;15.396;2024-02-26T08:57:25;4.57;;;3.80;;
8399;SDS011;4237;47.030;15.396;2024-02-26T08:59:55;6.03;;;3.80;;
8399;SDS011;4237;47.030;15.396;2024-02-26T09:02:23;4.50;;;3.77;;
8399;SDS011;4237;47.030;15.396;2024-02-26T09:04:52;4.50;;;2.90;;
8399;SDS011;4237;47.030;15.396;2024-02-26T09:07:21;3.93;;;2.80;;
8399;SDS011;4237;47.030;15.396;2024-02-26T09:09:50;4.83;;;3.20;;
8399;SDS011;4237;47.030;15.396;2024-02-26T09:12:19;3.10;;;2.80;;
8399;SDS011;4237;47.030;15.396;2024-02-26T09:14:47;4.97;;;3.63;;
8399;SDS011;4237;47.030;15.396;2024-02-26T09:17:16;5.70;;;3.87;;
8399;SDS011;4237;47.030;15.396;2024-02-26T09:19:44;5.87;;;3.87;;
8399;SDS011;4237;47.030;15.396;2024-02-26T09:22:13;4.50;;;3.63;;
8399;SDS011;4237;47.030;15.396;2024-02-26T09:24:42;5.53;;;3.90;;
8399;SDS011;4237;47.030;15.396;2024-02-26T09:27:10;6.40;;;4.20;;
8399;SDS011;4237;47.030;15.396;2024-02-26T09:29:39;6.47;;;3.93;;
8399;SDS011;4237;47.030;15.396;2024-02-26T09:32:07;6.87;;;3.97;;
8399;SDS011;4237;47.030;15.396;2024-02-26T09:34:36;7.43;;;4.83;;
8399;SDS011;4237;47.030;15.396;2024-02-26T09:37:06;4.73;;;3.80;;
8399;SDS011;4237;47.030;15.396;2024-02-26T09:39:34;5.70;;;3.93;;
8399;SDS011;4237;47.030;15.396;2024-02-26T09:42:04;4.13;;;3.67;;
8399;SDS011;4237;47.030;15.396;2024-02-26T09:44:35;5.33;;;3.30;;
8399;SDS011;4237;47.030;15.396;2024-02-26T09:47:05;7.33;;;3.80;;
8399;SDS011;4237;47.030;15.396;2024-02-26T09:49:38;6.33;;;3.67;;
8399;SDS011;4237;47.030;15.396;2024-02-26T09:52:06;11.07;;;3.90;;
8399;SDS011;4237;47.030;15.396;2024-02-26T09:54:36;5.83;;;3.77;;
8399;SDS011;4237;47.030;15.396;2024-02-26T09:57:05;5.63;;;3.90;;
8399;SDS011;4237;47.030;15.396;2024-02-26T09:59:39;6.77;;;3.70;;
8399;SDS011;4237;47.030;15.396;2024-02-26T10:02:09;6.20;;;3.60;;
8399;SDS011;4237;47.030;15.396;2024-02-26T10:04:42;5.10;;;3.27;;
8399;SDS011;4237;47.030;15.396;2024-02-26T10:07:11;5.47;;;3.63;;
8399;SDS011;4237;47.030;15.396;2024-02-26T10:09:40;5.70;;;3.50;;
8399;SDS011;4237;47.030;15.396;2024-02-26T10:12:10;4.43;;;3.33;;
8399;SDS011;4237;47.030;15.396;2024-02-26T10:14:39;5.30;;;3.47;;
8399;SDS011;4237;47.030;15.396;2024-02-26T10:17:07;5.43;;;3.10;;
8399;SDS011;4237;47.030;15.396;2024-02-26T10:19:36;4.00;;;2.63;;
8399;SDS011;4237;47.030;15.396;2024-02-26T10:22:05;5.93;;;2.90;;
8399;SDS011;4237;47.030;15.396;2024-02-26T10:24:33;3.97;;;2.97;;
8399;SDS011;4237;47.030;15.396;2024-02-26T10:27:02;6.87;;;2.77;;
8399;SDS011;4237;47.030;15.396;2024-02-26T10:29:32;5.63;;;2.83;;
8399;SDS011;4237;47.030;15.396;2024-02-26T10:32:01;4.07;;;2.80;;
8399;SDS011;4237;47.030;15.396;2024-02-26T10:34:29;5.30;;;3.07;;
8399;SDS011;4237;47.030;15.396;2024-02-26T10:37:00;4.43;;;2.77;;
8399;SDS011;4237;47.030;15.396;2024-02-26T10:39:30;3.47;;;2.60;;
8399;SDS011;4237;47.030;15.396;2024-02-26T10:41:59;4.03;;;2.37;;
8399;SDS011;4237;47.030;15.396;2024-02-26T10:44:29;4.63;;;2.80;;
8399;SDS011;4237;47.030;15.396;2024-02-26T10:46:59;3.80;;;2.93;;
8399;SDS011;4237;47.030;15.396;2024-02-26T10:49:27;3.63;;;2.73;;
8399;SDS011;4237;47.030;15.396;2024-02-26T10:51:56;4.73;;;2.80;;
8399;SDS011;4237;47.030;15.396;2024-02-26T10:54:26;3.87;;;2.57;;
8399;SDS011;4237;47.030;15.396;2024-02-26T10:56:56;3.47;;;2.70;;
8399;SDS011;4237;47.030;15.396;2024-02-26T10:59:26;2.93;;;2.20;;
8399;SDS011;4237;47.030;15.396;2024-02-26T11:01:55;2.90;;;2.20;;
8399;SDS011;4237;47.030;15.396;2024-02-26T11:04:25;2.80;;;2.10;;
8399;SDS011;4237;47.030;15.396;2024-02-26T11:06:56;4.40;;;2.30;;
8399;SDS011;4237;47.030;15.396;2024-02-26T11:09:25;5.00;;;2.40;;
8399;SDS011;4237;47.030;15.396;2024-02-26T11:11:54;3.30;;;1.97;;
8399;SDS011;4237;47.030;15.396;2024-02-26T11:14:26;2.90;;;1.53;;
8399;SDS011;4237;47.030;15.396;2024-02-26T11:16:56;3.77;;;1.53;;
8399;SDS011;4237;47.030;15.396;2024-02-26T11:19:25;2.20;;;1.67;;
8399;SDS011;4237;47.030;15.396;2024-02-26T11:21:55;2.17;;;1.50;;
8399;SDS011;4237;47.030;15.396;2024-02-26T11:24:24;4.70;;;1.57;;
8399;SDS011;4237;47.030;15.396;2024-02-26T11:26:56;3.63;;;1.67;;
8399;SDS011;4237;47.030;15.396;2024-02-26T11:29:29;2.43;;;1.70;;
8399;SDS011;4237;47.030;15.396;2024-02-26T11:32:07;3.23;;;1.80;;
8399;SDS011;4237;47.030;15.396;2024-02-26T11:34:36;2.63;;;1.43;;
8399;SDS011;4237;47.030;15.396;2024-02-26T11:37:15;2.20;;;1.50;;
8399;SDS011;4237;47.030;15.396;2024-02-26T11:39:42;1.80;;;1.27;;
8399;SDS011;4237;47.030;15.396;2024-02-26T11:42:16;2.23;;;1.67;;
8399;SDS011;4237;47.030;15.396;2024-02-26T11:44:45;2.57;;;1.80;;
8399;SDS011;4237;47.030;15.396;2024-02-26T11:47:14;3.00;;;1.80;;
8399;SDS011;4237;47.030;15.396;2024-02-26T11:49:47;2.50;;;1.70;;
8399;SDS011;4237;47.030;15.396;2024-02-26T11:52:16;3.20;;;1.70;;
8399;SDS011;4237;47.030;15.396;2024-02-26T11:54:45;3.17;;;2.10;;
8399;SDS011;4237;47.030;15.396;2024-02-26T11:57:29;6.13;;;2.37;;
8399;SDS011;4237;47.030;15.396;2024-02-26T12:02:49;3.90;;;2.07;;
8399;SDS011;4237;47.030;15.396;2024-02-26T12:05:22;4.17;;;1.80;;
8399;SDS011;4237;47.030;15.396;2024-02-26T12:07:53;2.50;;;1.80;;
8399;SDS011;4237;47.030;15.396;2024-02-26T12:12:58;5.33;;;2.00;;
8399;SDS011;4237;47.030;15.396;2024-02-26T12:15:36;3.73;;;1.97;;
8399;SDS011;4237;47.030;15.396;2024-02-26T12:18:03;3.60;;;2.40;;
8399;SDS011;4237;47.030;15.396;2024-02-26T12:20:33;4.53;;;2.13;;
8399;SDS011;4237;47.030;15.396;2024-02-26T12:23:02;3.40;;;1.97;;
8399;SDS011;4237;47.030;15.396;2024-02-26T12:25:31;3.57;;;1.70;;
8399;SDS011;4237;47.030;15.396;2024-02-26T12:28:00;3.97;;;2.00;;
8399;SDS011;4237;47.030;15.396;2024-02-26T12:30:29;3.33;;;1.87;;
8399;SDS011;4237;47.030;15.396;2024-02-26T12:32:59;2.47;;;1.80;;
8399;SDS011;4237;47.030;15.396;2024-02-26T12:35:28;3.23;;;2.00;;
8399;SDS011;4237;47.030;15.396;2024-02-26T12:37:58;3.70;;;2.10;;
8399;SDS011;4237;47.030;15.396;2024-02-26T12:40:27;3.20;;;2.03;;
8399;SDS011;4237;47.030;15.396;2024-02-26T12:42:56;4.27;;;1.87;;
8399;SDS011;4237;47.030;15.396;2024-02-26T12:45:25;2.23;;;1.60;;
8399;SDS011;4237;47.030;15.396;2024-02-26T12:47:55;2.77;;;1.80;;
8399;SDS011;4237;47.030;15.396;2024-02-26T12:50:23;2.67;;;2.00;;
8399;SDS011;4237;47.030;15.396;2024-02-26T12:52:52;1.70;;;1.60;;
8399;SDS011;4237;47.030;15.396;2024-02-26T12:55:21;2.10;;;1.53;;
8399;SDS011;4237;47.030;15.396;2024-02-26T12:57:50;2.23;;;1.60;;
8399;SDS011;4237;47.030;15.396;2024-02-26T13:00:24;2.53;;;1.70;;
8399;SDS011;4237;47.030;15.396;2024-02-26T13:02:53;3.57;;;1.60;;
8399;SDS011;4237;47.030;15.396;2024-02-26T13:05:23;3.70;;;1.60;;
8399;SDS011;4237;47.030;15.396;2024-02-26T13:07:52;1.93;;;1.67;;
8399;SDS011;4237;47.030;15.396;2024-02-26T13:10:21;2.73;;;1.50;;
8399;SDS011;4237;47.030;15.396;2024-02-26T13:12:52;4.10;;;1.63;;
8399;SDS011;4237;47.030;15.396;2024-02-26T13:15:20;2.90;;;1.47;;
8399;SDS011;4237;47.030;15.396;2024-02-26T13:17:49;2.00;;;1.40;;
8399;SDS011;4237;47.030;15.396;2024-02-26T13:20:29;1.70;;;1.30;;
8399;SDS011;4237;47.030;15.396;2024-02-26T13:23:05;2.53;;;1.37;;
8399;SDS011;4237;47.030;15.396;2024-02-26T13:25:35;1.87;;;1.50;;
8399;SDS011;4237;47.030;15.396;2024-02-26T13:30:36;3.53;;;1.37;;
8399;SDS011;4237;47.030;15.396;2024-02-26T13:33:09;3.20;;;1.50;;
8399;SDS011;4237;47.030;15.396;2024-02-26T13:35:40;3.33;;;1.60;;
8399;SDS011;4237;47.030;15.396;2024-02-26T13:38:10;1.40;;;1.17;;
8399;SDS011;4237;47.030;15.396;2024-02-26T13:40:39;1.93;;;1.20;;
8399;SDS011;4237;47.030;15.396;2024-02-26T13:43:08;1.40;;;1.20;;
8399;SDS011;4237;47.030;15.396;2024-02-26T13:45:38;2.10;;;1.30;;
8399;SDS011;4237;47.030;15.396;2024-02-26T13:48:07;1.87;;;1.20;;
8399;SDS011;4237;47.030;15.396;2024-02-26T13:50:40;3.33;;;1.33;;
8399;SDS011;4237;47.030;15.396;2024-02-26T13:53:12;2.03;;;1.57;;
8399;SDS011;4237;47.030;15.396;2024-02-26T13:55:41;1.47;;;1.27;;
8399;SDS011;4237;47.030;15.396;2024-02-26T13:58:11;3.33;;;1.40;;
8399;SDS011;4237;47.030;15.396;2024-02-26T14:00:41;2.10;;;1.40;;
8399;SDS011;4237;47.030;15.396;2024-02-26T14:03:09;3.33;;;1.17;;
8399;SDS011;4237;47.030;15.396;2024-02-26T14:05:38;2.73;;;1.10;;
8399;SDS011;4237;47.030;15.396;2024-02-26T14:08:07;1.83;;;1.17;;
8399;SDS011;4237;47.030;15.396;2024-02-26T14:10:36;1.10;;;1.00;;
8399;SDS011;4237;47.030;15.396;2024-02-26T14:13:05;1.80;;;1.10;;
8399;SDS011;4237;47.030;15.396;2024-02-26T14:15:34;3.20;;;1.20;;
8399;SDS011;4237;47.030;15.396;2024-02-26T14:18:02;1.40;;;1.03;;
8399;SDS011;4237;47.030;15.396;2024-02-26T14:20:31;3.13;;;1.10;;
8399;SDS011;4237;47.030;15.396;2024-02-26T14:22:59;2.77;;;1.00;;
8399;SDS011;4237;47.030;15.396;2024-02-26T14:25:28;2.20;;;1.17;;
8399;SDS011;4237;47.030;15.396;2024-02-26T14:27:57;1.97;;;1.10;;
8399;SDS011;4237;47.030;15.396;2024-02-26T14:30:25;1.80;;;0.87;;
8399;SDS011;4237;47.030;15.396;2024-02-26T14:32:54;2.80;;;1.13;;
8399;SDS011;4237;47.030;15.396;2024-02-26T14:35:23;2.00;;;1.03;;
8399;SDS011;4237;47.030;15.396;2024-02-26T14:37:53;1.10;;;0.93;;
8399;SDS011;4237;47.030;15.396;2024-02-26T14:40:21;2.33;;;1.00;;
8399;SDS011;4237;47.030;15.396;2024-02-26T14:42:50;2.30;;;1.07;;
8399;SDS011;4237;47.030;15.396;2024-02-26T14:45:19;4.27;;;1.47;;
8399;SDS011;4237;47.030;15.396;2024-02-26T14:47:47;3.83;;;1.47;;
8399;SDS011;4237;47.030;15.396;2024-02-26T14:50:16;5.70;;;1.73;;
8399;SDS011;4237;47.030;15.396;2024-02-26T14:52:45;2.77;;;1.23;;
8399;SDS011;4237;47.030;15.396;2024-02-26T14:55:13;1.30;;;1.20;;
8399;SDS011;4237;47.030;15.396;2024-02-26T14:57:42;3.07;;;1.47;;
8399;SDS011;4237;47.030;15.396;2024-02-26T15:00:11;2.77;;;1.20;;
8399;SDS011;4237;47.030;15.396;2024-02-26T15:02:39;1.50;;;0.90;;
8399;SDS011;4237;47.030;15.396;2024-02-26T15:05:08;1.20;;;1.10;;
8399;SDS011;4237;47.030;15.396;2024-02-26T15:07:38;1.70;;;1.30;;
8399;SDS011;4237;47.030;15.396;2024-02-26T15:10:06;1.90;;;1.30;;
8399;SDS011;4237;47.030;15.396;2024-02-26T15:12:35;2.33;;;1.37;;
8399;SDS011;4237;47.030;15.396;2024-02-26T15:15:04;1.50;;;1.13;;
8399;SDS011;4237;47.030;15.396;2024-02-26T15:17:33;1.47;;;1.00;;